Time;durP1;ratioP1;P1;durP2;ratioP2;P2;SDS_P1;SDS_P2;PMS_P1;PMS_P2;Temp;Humidity;BMP_temperature;BMP_pressure;BME280_temperature;BME280_humidity;BME280_pressure;Samples;Min_cycle;Max_cycle;Signal;HPM_P1;HPM_P2
2020/12/31 00:02:44;;;;;;;13.15;5.30;;;7.30;58.70;;;;;;6274339;28;20040;-81
2020/12/31 00:05:45;;;;;;;13.60;4.85;;;7.30;58.80;;;;;;6302342;28;20056;-82
2020/12/31 00:08:47;;;;;;;9.30;4.53;;;7.30;58.50;;;;;;6284426;28;20040;-81
2020/12/31 00:11:47;;;;;;;7.95;3.53;;;7.20;58.50;;;;;;6282793;28;20033;-81
2020/12/31 00:14:48;;;;;;;8.25;3.58;;;7.20;58.80;;;;;;6285828;28;20493;-78
2020/12/31 00:17:50;;;;;;;11.38;3.92;;;7.20;57.90;;;;;;6287267;28;20036;-81
2020/12/31 00:20:51;;;;;;;8.50;4.00;;;7.20;57.80;;;;;;6282768;28;20426;-82
2020/12/31 00:23:52;;;;;;;12.77;4.22;;;7.20;57.90;;;;;;6255318;28;20037;-80
2020/12/31 00:26:53;;;;;;;9.68;4.32;;;7.20;57.90;;;;;;6299756;28;20043;-81
2020/12/31 00:29:53;;;;;;;9.18;4.03;;;7.20;57.90;;;;;;6281835;28;20045;-81
2020/12/31 00:32:54;;;;;;;11.55;4.95;;;7.20;57.90;;;;;;6281187;28;20131;-81
2020/12/31 00:35:57;;;;;;;9.85;4.45;;;7.20;58.10;;;;;;6281374;28;20056;-81
2020/12/31 00:38:58;;;;;;;10.00;4.13;;;7.10;58.10;;;;;;6265364;28;20435;-81
2020/12/31 00:41:58;;;;;;;8.65;4.22;;;7.10;58.10;;;;;;6282144;28;20032;-81
2020/12/31 00:45:00;;;;;;;6.28;3.90;;;7.10;58.30;;;;;;6281941;28;20188;-81
2020/12/31 00:48:01;;;;;;;6.68;3.83;;;7.00;58.30;;;;;;6257253;28;20033;-81
2020/12/31 00:51:02;;;;;;;12.00;5.00;;;7.00;58.40;;;;;;6261437;28;20370;-80
2020/12/31 00:54:04;;;;;;;4.43;3.30;;;7.00;58.50;;;;;;6264950;28;20032;-81
2020/12/31 00:57:05;;;;;;;8.13;2.50;;;7.00;58.10;;;;;;6263693;28;20501;-80
2020/12/31 01:00:08;;;;;;;9.45;2.25;;;7.00;57.80;;;;;;6257523;28;20029;-81
2020/12/31 01:03:21;;;;;;;6.38;2.40;;;7.00;57.30;;;;;;6252670;28;20075;-79
2020/12/31 01:06:21;;;;;;;5.38;2.85;;;7.00;56.90;;;;;;6254279;28;20033;-81
2020/12/31 01:09:22;;;;;;;6.22;2.35;;;6.90;56.80;;;;;;6229866;28;20044;-80
2020/12/31 01:12:23;;;;;;;6.70;3.05;;;6.90;56.70;;;;;;6238725;28;20044;-80
2020/12/31 01:15:25;;;;;;;5.95;2.90;;;6.90;56.60;;;;;;6246064;28;20116;-80
2020/12/31 01:18:26;;;;;;;8.55;3.15;;;6.90;57.10;;;;;;6256608;28;20052;-82
2020/12/31 01:21:27;;;;;;;4.68;2.35;;;6.90;56.50;;;;;;6275196;28;20037;-80
2020/12/31 01:24:28;;;;;;;5.18;2.85;;;6.90;56.50;;;;;;6244248;28;20136;-81
2020/12/31 01:27:29;;;;;;;5.20;2.58;;;6.80;56.50;;;;;;6265060;28;20063;-81
2020/12/31 01:30:31;;;;;;;6.07;2.78;;;6.80;56.60;;;;;;6267443;28;20044;-82
2020/12/31 01:33:32;;;;;;;5.10;3.03;;;6.70;56.70;;;;;;6241088;28;20029;-81
2020/12/31 01:36:34;;;;;;;5.45;3.30;;;6.70;56.90;;;;;;6260324;28;20025;-80
2020/12/31 01:39:35;;;;;;;4.13;2.30;;;6.60;57.00;;;;;;6245604;28;20071;-80
2020/12/31 01:42:39;;;;;;;6.82;2.50;;;6.50;57.20;;;;;;6259513;28;20429;-81
2020/12/31 01:45:42;;;;;;;5.43;3.05;;;6.40;57.30;;;;;;6265874;28;20033;-80
2020/12/31 01:48:44;;;;;;;6.95;2.50;;;6.40;57.10;;;;;;6285921;28;20037;-81
2020/12/31 01:51:47;;;;;;;10.18;2.97;;;6.30;57.40;;;;;;6249147;28;20039;-81
2020/12/31 01:54:48;;;;;;;9.15;2.45;;;6.30;57.30;;;;;;6270981;28;20044;-81
2020/12/31 01:57:51;;;;;;;4.32;2.40;;;6.30;57.90;;;;;;6276846;28;20049;-82
2020/12/31 02:00:54;;;;;;;6.85;2.42;;;6.30;57.20;;;;;;6273967;28;20098;-80
2020/12/31 02:03:57;;;;;;;4.53;2.60;;;6.20;57.20;;;;;;6282912;28;20017;-80
2020/12/31 02:06:58;;;;;;;6.60;2.22;;;6.30;57.10;;;;;;6290029;28;20041;-80
2020/12/31 02:09:59;;;;;;;6.97;2.53;;;6.20;57.00;;;;;;6271009;28;20095;-80
2020/12/31 02:13:00;;;;;;;4.72;2.78;;;6.30;57.10;;;;;;6263740;28;20037;-81
2020/12/31 02:16:01;;;;;;;7.18;2.28;;;6.20;56.90;;;;;;6282300;28;20041;-81
2020/12/31 02:19:16;;;;;;;6.18;2.42;;;6.30;56.90;;;;;;6270373;28;20048;-80
2020/12/31 02:22:17;;;;;;;4.85;2.08;;;6.30;56.80;;;;;;6268641;28;20060;-80
2020/12/31 02:25:18;;;;;;;5.07;2.78;;;6.30;56.60;;;;;;6268342;28;20048;-80
2020/12/31 02:28:19;;;;;;;4.85;1.77;;;6.30;56.20;;;;;;6247294;28;20045;-80
2020/12/31 02:31:21;;;;;;;4.13;2.35;;;6.40;56.00;;;;;;6258973;28;20172;-80
2020/12/31 02:34:24;;;;;;;4.35;2.00;;;6.40;55.70;;;;;;6256462;28;20048;-81
2020/12/31 02:37:25;;;;;;;3.33;1.88;;;6.40;55.60;;;;;;6238420;28;20079;-80
2020/12/31 02:40:26;;;;;;;4.30;2.38;;;6.40;55.70;;;;;;6274125;28;20045;-80
2020/12/31 02:43:26;;;;;;;5.18;2.45;;;6.50;55.80;;;;;;6274088;28;20030;-80
2020/12/31 02:46:27;;;;;;;5.85;2.13;;;6.50;55.70;;;;;;6275108;28;20028;-80
2020/12/31 02:49:28;;;;;;;3.95;1.98;;;6.50;55.50;;;;;;6257982;28;20048;-80
2020/12/31 02:52:29;;;;;;;2.72;2.00;;;6.50;55.40;;;;;;6255499;28;20040;-80
2020/12/31 02:55:30;;;;;;;5.03;1.73;;;6.40;55.40;;;;;;6255920;28;20029;-80
2020/12/31 02:58:32;;;;;;;5.53;2.60;;;6.40;55.70;;;;;;6241457;28;20064;-81
2020/12/31 03:01:33;;;;;;;6.47;2.20;;;6.30;55.80;;;;;;6258464;28;20033;-81
2020/12/31 03:04:34;;;;;;;4.95;2.25;;;6.30;55.90;;;;;;6255270;28;20053;-80
2020/12/31 03:07:35;;;;;;;2.67;1.73;;;6.30;56.00;;;;;;6254532;28;20036;-80
2020/12/31 03:10:37;;;;;;;4.10;2.15;;;6.30;56.00;;;;;;6240200;28;20044;-80
2020/12/31 03:13:38;;;;;;;6.40;3.35;;;6.30;56.10;;;;;;6270874;28;20063;-80
2020/12/31 03:16:38;;;;;;;5.28;2.55;;;6.30;56.00;;;;;;6237985;28;20458;-80
2020/12/31 03:19:39;;;;;;;4.78;1.88;;;6.40;56.00;;;;;;6254101;28;20060;-80
2020/12/31 03:22:42;;;;;;;3.95;1.92;;;6.40;55.90;;;;;;6276416;28;20103;-80
2020/12/31 03:25:43;;;;;;;5.85;2.78;;;6.50;55.90;;;;;;6280877;28;20044;-80
2020/12/31 03:28:44;;;;;;;10.50;2.63;;;6.50;55.60;;;;;;6299532;28;20055;-80
2020/12/31 03:31:45;;;;;;;5.57;2.03;;;6.60;55.40;;;;;;6268400;28;20032;-81
2020/12/31 03:34:46;;;;;;;5.60;2.63;;;6.60;56.00;;;;;;6292130;28;20063;-81
2020/12/31 03:37:47;;;;;;;4.20;2.45;;;6.70;55.40;;;;;;6283350;28;20110;-81
2020/12/31 03:40:48;;;;;;;5.80;2.53;;;6.70;55.40;;;;;;6266652;28;20036;-81
2020/12/31 03:43:49;;;;;;;4.45;2.22;;;6.70;55.20;;;;;;6259597;28;20045;-81
2020/12/31 03:46:50;;;;;;;5.82;1.58;;;6.80;55.20;;;;;;6241863;28;20044;-81
2020/12/31 03:49:51;;;;;;;2.55;1.63;;;6.80;54.90;;;;;;6255919;28;20036;-80
2020/12/31 03:52:52;;;;;;;2.67;1.73;;;6.80;54.70;;;;;;6256871;28;20053;-81
2020/12/31 03:55:53;;;;;;;3.05;1.85;;;6.80;54.70;;;;;;6257065;28;20045;-81
2020/12/31 03:58:54;;;;;;;4.07;1.85;;;6.80;54.60;;;;;;6261559;28;20111;-80
2020/12/31 04:01:55;;;;;;;4.40;1.58;;;6.80;54.60;;;;;;6233326;28;20113;-81
2020/12/31 04:04:57;;;;;;;2.78;1.90;;;6.80;54.70;;;;;;6231844;28;20045;-80
2020/12/31 04:07:58;;;;;;;2.08;1.50;;;6.80;54.60;;;;;;6216826;28;20060;-79
2020/12/31 04:10:59;;;;;;;3.75;1.83;;;6.80;54.30;;;;;;6232573;28;20045;-81
2020/12/31 04:14:00;;;;;;;5.85;1.80;;;6.80;54.10;;;;;;6232923;28;20132;-81
2020/12/31 04:17:01;;;;;;;4.22;1.40;;;6.80;54.10;;;;;;6266140;28;20099;-81
2020/12/31 04:20:05;;;;;;;8.00;1.98;;;6.80;54.10;;;;;;6265621;28;20053;-81
2020/12/31 04:23:06;;;;;;;2.33;1.65;;;6.80;54.10;;;;;;6224774;28;20042;-82
2020/12/31 04:26:10;;;;;;;4.75;1.67;;;6.80;54.10;;;;;;6260305;28;20057;-82
2020/12/31 04:29:11;;;;;;;3.08;1.45;;;6.80;54.10;;;;;;6214377;28;20448;-82
2020/12/31 04:32:12;;;;;;;3.90;1.73;;;6.80;54.00;;;;;;6230463;28;20061;-80
2020/12/31 04:35:13;;;;;;;2.20;1.75;;;6.90;53.90;;;;;;6261988;28;20105;-80
2020/12/31 04:38:14;;;;;;;3.60;1.60;;;6.90;53.90;;;;;;6228776;28;20041;-80
2020/12/31 04:41:16;;;;;;;4.22;1.75;;;6.90;53.80;;;;;;6243024;28;20044;-80
2020/12/31 04:44:17;;;;;;;2.53;1.40;;;7.00;53.60;;;;;;6224779;28;20034;-79
2020/12/31 04:47:20;;;;;;;8.85;2.25;;;7.00;53.40;;;;;;6225018;28;20068;-81
2020/12/31 04:50:25;;;;;;;5.10;2.00;;;7.00;53.30;;;;;;6257886;28;20054;-80
2020/12/31 04:53:26;;;;;;;3.45;1.65;;;7.10;53.30;;;;;;6224173;28;20463;-81
2020/12/31 04:56:33;;;;;;;1.98;1.77;;;7.20;53.30;;;;;;6224435;28;20041;-81
2020/12/31 04:59:34;;;;;;;4.65;1.80;;;7.10;53.30;;;;;;6251381;28;20042;-80
2020/12/31 05:02:36;;;;;;;2.22;1.58;;;7.10;53.40;;;;;;6224238;28;20065;-81
2020/12/31 05:05:39;;;;;;;2.78;1.73;;;7.20;53.50;;;;;;6223507;28;20117;-80
2020/12/31 05:08:40;;;;;;;5.63;1.70;;;7.20;53.40;;;;;;6225043;28;20038;-81
2020/12/31 05:11:43;;;;;;;2.20;1.80;;;7.20;53.40;;;;;;6223788;28;20054;-80
2020/12/31 05:14:44;;;;;;;4.47;1.70;;;7.30;53.40;;;;;;6223313;28;20371;-80
2020/12/31 05:17:45;;;;;;;4.65;1.70;;;7.30;53.30;;;;;;6224594;28;20030;-80
2020/12/31 05:20:50;;;;;;;5.95;2.90;;;7.30;53.00;;;;;;6224431;28;20026;-80
2020/12/31 05:23:51;;;;;;;5.57;2.22;;;7.40;53.10;;;;;;6256413;28;20053;-81
2020/12/31 05:26:54;;;;;;;5.63;2.55;;;7.40;53.20;;;;;;6239616;28;20066;-80
2020/12/31 05:29:57;;;;;;;9.30;3.63;;;7.40;53.40;;;;;;6241705;28;20080;-80
2020/12/31 05:33:04;;;;;;;7.47;3.03;;;7.40;53.60;;;;;;6262054;28;20030;-80
2020/12/31 05:36:21;;;;;;;14.88;3.80;;;7.30;53.70;;;;;;6244313;28;20042;-80
2020/12/31 05:39:23;;;;;;;6.55;3.00;;;7.30;54.60;;;;;;6259286;28;20037;-81
2020/12/31 05:42:24;;;;;;;9.23;4.18;;;7.20;54.30;;;;;;6247520;28;20125;-79
2020/12/31 05:45:28;;;;;;;9.77;4.22;;;7.10;54.50;;;;;;6247565;28;20033;-80
2020/12/31 05:48:28;;;;;;;5.07;2.80;;;7.10;54.80;;;;;;6231839;28;20443;-82
2020/12/31 05:51:32;;;;;;;5.88;3.08;;;7.00;55.10;;;;;;6252454;28;20049;-80
2020/12/31 05:54:40;;;;;;;6.82;3.30;;;6.90;55.30;;;;;;6254644;28;20053;-81
2020/12/31 05:57:43;;;;;;;9.27;2.72;;;6.80;55.50;;;;;;6274443;28;20021;-79
2020/12/31 06:00:56;;;;;;;6.72;3.17;;;6.90;56.20;;;;;;6291820;28;20346;-80
2020/12/31 06:04:18;;;;;;;7.22;3.30;;;6.80;55.60;;;;;;6274911;28;20025;-79
2020/12/31 06:07:31;;;;;;;4.80;2.45;;;6.80;55.70;;;;;;6274310;28;20033;-79
2020/12/31 06:10:32;;;;;;;5.53;3.00;;;6.90;55.80;;;;;;6272764;28;20041;-81
2020/12/31 06:13:37;;;;;;;6.20;3.00;;;6.90;55.60;;;;;;6273256;28;20028;-81
2020/12/31 06:16:39;;;;;;;10.10;3.42;;;6.90;55.60;;;;;;6273288;28;20315;-80
2020/12/31 06:19:39;;;;;;;6.90;3.17;;;7.00;55.60;;;;;;6266750;28;20086;-80
2020/12/31 06:23:00;;;;;;;11.57;3.88;;;7.00;55.60;;;;;;6261806;28;20040;-81
2020/12/31 06:26:20;;;;;;;9.77;3.47;;;7.00;55.60;;;;;;6279702;28;20041;-81
2020/12/31 06:29:22;;;;;;;6.40;3.00;;;7.00;55.60;;;;;;6259558;28;20124;-80
2020/12/31 06:32:36;;;;;;;6.38;3.47;;;6.90;55.80;;;;;;6272226;28;20033;-80
2020/12/31 06:35:39;;;;;;;12.95;4.03;;;6.90;55.90;;;;;;6238504;28;20029;-80
2020/12/31 06:38:45;;;;;;;5.40;3.08;;;7.00;56.00;;;;;;6254549;28;20064;-81
2020/12/31 06:41:53;;;;;;;8.63;3.55;;;7.00;56.00;;;;;;6256691;28;20098;-82
2020/12/31 06:44:54;;;;;;;9.48;4.55;;;7.00;56.10;;;;;;6258564;28;20041;-80
2020/12/31 06:47:55;;;;;;;15.82;3.83;;;7.00;56.20;;;;;;6261050;28;20033;-80
2020/12/31 06:50:58;;;;;;;7.93;3.38;;;7.00;56.20;;;;;;6272217;28;20056;-80
2020/12/31 06:53:59;;;;;;;7.72;3.55;;;7.10;56.30;;;;;;6254645;28;20037;-80
2020/12/31 06:57:00;;;;;;;8.85;4.10;;;7.10;56.20;;;;;;6272347;28;20060;-80
2020/12/31 07:00:01;;;;;;;8.23;3.58;;;7.10;56.10;;;;;;6272372;28;20045;-81
2020/12/31 07:03:02;;;;;;;6.97;3.42;;;7.10;56.10;;;;;;6282709;28;20075;-81
2020/12/31 07:06:21;;;;;;;6.00;3.42;;;7.10;56.00;;;;;;6291684;28;20366;-81
2020/12/31 07:09:35;;;;;;;5.38;2.72;;;7.20;55.70;;;;;;6258265;28;20123;-80
2020/12/31 07:12:45;;;;;;;6.50;3.47;;;7.20;55.60;;;;;;6277111;28;20064;-81
2020/12/31 07:15:45;;;;;;;4.45;2.35;;;7.30;55.40;;;;;;6284095;28;20044;-81
2020/12/31 07:18:47;;;;;;;3.85;1.63;;;7.40;55.30;;;;;;6293421;28;20422;-79
2020/12/31 07:21:50;;;;;;;3.72;1.73;;;7.40;54.60;;;;;;6275332;28;20040;-80
2020/12/31 07:25:03;;;;;;;2.28;1.33;;;7.50;53.90;;;;;;6261223;28;20131;-81
2020/12/31 07:28:04;;;;;;;8.15;2.33;;;7.60;53.40;;;;;;6265226;28;20033;-81
2020/12/31 07:31:05;;;;;;;6.93;3.53;;;7.70;53.00;;;;;;6286070;28;20048;-81
2020/12/31 07:34:23;;;;;;;14.52;3.88;;;7.70;53.00;;;;;;6309989;28;20040;-82
2020/12/31 07:37:25;;;;;;;7.85;3.70;;;7.80;53.50;;;;;;6256818;28;20058;-82
2020/12/31 07:40:45;;;;;;;9.57;3.80;;;7.80;53.60;;;;;;6278951;28;20512;-81
2020/12/31 07:43:46;;;;;;;8.02;3.53;;;7.80;53.80;;;;;;6258484;28;20029;-80
2020/12/31 07:46:48;;;;;;;6.13;3.47;;;7.70;53.90;;;;;;6258166;28;20079;-80
2020/12/31 07:49:51;;;;;;;9.15;4.00;;;7.70;54.10;;;;;;6259223;28;20056;-80
2020/12/31 07:52:53;;;;;;;8.18;4.28;;;7.70;54.30;;;;;;6264168;28;20029;-79
2020/12/31 07:55:54;;;;;;;6.72;2.75;;;7.70;55.10;;;;;;6260505;28;20032;-81
2020/12/31 07:58:57;;;;;;;9.68;3.22;;;7.70;54.50;;;;;;6259850;28;20107;-80
2020/12/31 08:02:05;;;;;;;3.72;1.20;;;7.60;54.60;;;;;;6259344;28;20037;-81
2020/12/31 08:05:13;;;;;;;2.88;1.50;;;7.60;54.60;;;;;;6259399;28;20029;-81
2020/12/31 08:08:16;;;;;;;5.00;2.15;;;7.50;54.80;;;;;;6261048;28;20434;-80
2020/12/31 08:11:17;;;;;;;8.73;2.38;;;7.40;55.00;;;;;;6292417;28;20037;-81
2020/12/31 08:14:19;;;;;;;5.55;2.03;;;7.30;55.30;;;;;;6259512;28;20036;-81
2020/12/31 08:17:20;;;;;;;3.85;1.63;;;7.30;55.70;;;;;;6291309;28;20454;-81
2020/12/31 08:20:24;;;;;;;2.35;1.02;;;7.30;56.00;;;;;;6242197;28;20036;-81
2020/12/31 08:23:32;;;;;;;2.83;1.02;;;7.20;56.30;;;;;;6241884;28;20474;-81
2020/12/31 08:26:33;;;;;;;2.80;1.17;;;7.10;56.70;;;;;;6242735;28;20029;-81
2020/12/31 08:29:36;;;;;;;3.40;1.20;;;7.10;57.00;;;;;;6242386;28;20037;-81
2020/12/31 08:32:55;;;;;;;1.40;1.00;;;7.00;57.10;;;;;;6275021;28;20033;-80
2020/12/31 08:35:56;;;;;;;4.47;1.38;;;7.00;57.20;;;;;;6237264;28;20026;-81
2020/12/31 08:39:08;;;;;;;3.22;1.55;;;7.10;57.40;;;;;;6279598;28;20359;-81
2020/12/31 08:42:14;;;;;;;5.20;2.28;;;7.10;57.60;;;;;;6244512;28;20037;-82
2020/12/31 08:45:26;;;;;;;3.95;2.15;;;7.20;57.70;;;;;;6259074;28;20474;-80
2020/12/31 08:48:36;;;;;;;4.05;2.60;;;7.20;57.80;;;;;;6242033;28;20052;-79
2020/12/31 08:52:08;;;;;;;4.63;2.28;;;7.20;58.00;;;;;;6215495;28;20419;-82
2020/12/31 08:55:39;;;;;;;2.13;1.10;;;7.20;58.20;;;;;;6219586;28;20053;-81
2020/12/31 08:59:30;;;;;;;13.00;1.88;;;7.30;57.90;;;;;;6130821;28;20447;-81
2020/12/31 09:02:32;;;;;;;7.22;2.50;;;7.20;57.80;;;;;;6094211;29;20123;-80
2020/12/31 09:05:33;;;;;;;2.47;2.10;;;7.10;58.10;;;;;;6078872;29;20099;-82
2020/12/31 09:08:34;;;;;;;4.07;1.85;;;7.10;58.50;;;;;;6128005;29;20143;-80
2020/12/31 09:11:58;;;;;;;7.10;2.65;;;7.00;58.80;;;;;;6102263;29;20036;-80
2020/12/31 09:15:15;;;;;;;8.35;4.20;;;6.90;59.20;;;;;;6095931;29;20473;-80
2020/12/31 09:18:19;;;;;;;5.40;3.10;;;6.90;59.40;;;;;;6061615;29;20040;-79
2020/12/31 09:21:27;;;;;;;8.60;3.53;;;6.90;59.60;;;;;;6115413;29;20047;-81
2020/12/31 09:24:46;;;;;;;9.65;3.60;;;6.80;60.00;;;;;;6101765;29;20063;-80
2020/12/31 09:27:47;;;;;;;4.75;3.55;;;6.70;60.60;;;;;;6088574;29;20032;-81
2020/12/31 09:30:55;;;;;;;4.30;2.58;;;6.60;61.10;;;;;;6062167;29;20438;-82
2020/12/31 09:33:57;;;;;;;7.03;3.17;;;6.60;61.50;;;;;;6104819;29;20028;-81
2020/12/31 09:37:00;;;;;;;8.05;3.28;;;6.60;62.00;;;;;;6223425;28;20451;-81
2020/12/31 09:40:08;;;;;;;8.55;3.80;;;6.50;62.20;;;;;;6209367;28;20127;-81
2020/12/31 09:43:11;;;;;;;4.30;2.65;;;6.50;62.90;;;;;;6192124;28;20097;-81
2020/12/31 09:46:22;;;;;;;5.95;3.22;;;6.50;63.40;;;;;;6226635;28;20044;-82
2020/12/31 09:49:31;;;;;;;6.90;3.17;;;6.50;63.60;;;;;;6252867;28;20028;-83
2020/12/31 09:52:33;;;;;;;14.13;5.80;;;6.60;63.70;;;;;;6254432;28;20033;-82
2020/12/31 09:55:48;;;;;;;;;;;;;;;;;;;;;
2020/12/31 09:58:49;;;;;;;18.70;7.72;;;6.60;63.70;;;;;;6264161;28;20041;-80
2020/12/31 10:02:14;;;;;;;10.77;5.13;;;6.70;63.80;;;;;;6265823;28;20064;-82
2020/12/31 10:05:15;;;;;;;6.50;2.58;;;6.70;63.70;;;;;;6221443;28;20034;-80
2020/12/31 10:08:34;;;;;;;5.13;2.42;;;6.80;63.50;;;;;;6246873;28;20064;-80
2020/12/31 10:11:48;;;;;;;7.10;3.13;;;6.90;63.50;;;;;;6253083;28;20050;-80
2020/12/31 10:14:57;;;;;;;3.78;2.38;;;7.00;63.40;;;;;;6234946;28;20043;-82
2020/12/31 10:17:57;;;;;;;;;;;7.00;63.50;;;;;;6236390;28;20041;-80
2020/12/31 10:21:00;;;;;;;3.25;2.15;;;7.10;63.40;;;;;;6240827;28;19924;-82
2020/12/31 10:24:02;;;;;;;4.30;2.55;;;7.10;63.10;;;;;;6232196;28;20068;-80
2020/12/31 10:27:04;;;;;;;2.58;1.67;;;7.20;62.90;;;;;;6186094;28;20037;-80
2020/12/31 10:30:17;;;;;;;9.98;4.10;;;7.20;62.60;;;;;;6212658;28;20038;-82
2020/12/31 10:33:18;;;;;;;13.82;4.57;;;7.30;62.40;;;;;;6243317;28;20044;-81
2020/12/31 10:36:28;;;;;;;4.72;2.63;;;7.40;62.20;;;;;;6181823;28;21500;-80
2020/12/31 10:39:29;;;;;;;5.85;2.42;;;7.50;62.00;;;;;;6184097;28;20088;-81
2020/12/31 10:42:41;;;;;;;2.45;1.88;;;7.60;62.00;;;;;;6201778;28;20121;-81
2020/12/31 10:45:45;;;;;;;5.43;2.53;;;7.60;61.90;;;;;;6162216;28;20050;-80
2020/12/31 10:48:46;;;;;;;7.82;3.60;;;7.60;61.70;;;;;;6248969;28;20116;-82
2020/12/31 10:51:47;;;;;;;19.15;4.35;;;7.60;61.60;;;;;;6230201;28;20410;-82
2020/12/31 10:55:23;;;;;;;6.88;3.72;;;7.70;61.70;;;;;;6187540;28;20132;-82
2020/12/31 10:59:31;;;;;;;;;;;;;;;;;;;;;
2020/12/31 11:02:52;;;;;;;11.02;4.05;;;7.80;61.70;;;;;;6051584;29;20056;-81
2020/12/31 11:06:05;;;;;;;10.48;4.45;;;8.00;61.40;;;;;;6043030;28;20118;-82
2020/12/31 11:13:56;;;;;;;;;;;;;;;;;;;;;
2020/12/31 11:17:11;;;;;;;34.13;11.45;;;8.20;60.70;;;;;;6173831;28;20046;-82
2020/12/31 11:20:48;;;;;;;;;;;;;;;;;;;;;
2020/12/31 11:24:00;;;;;;;14.70;7.18;;;8.30;60.40;;;;;;6189461;28;20081;-82
2020/12/31 11:27:01;;;;;;;9.63;3.78;;;8.40;60.30;;;;;;6206263;28;20117;-81
2020/12/31 11:30:03;;;;;;;14.98;6.20;;;8.40;59.90;;;;;;6228882;28;20109;-81
2020/12/31 11:33:04;;;;;;;12.35;4.32;;;8.50;59.70;;;;;;6242487;28;20045;-81
2020/12/31 11:36:06;;;;;;;10.20;3.75;;;8.50;59.60;;;;;;6247465;28;20088;-81
2020/12/31 11:39:07;;;;;;;7.53;2.35;;;8.70;59.50;;;;;;6212086;28;20068;-82
2020/12/31 11:42:08;;;;;;;3.38;2.15;;;8.70;59.00;;;;;;6240630;28;20038;-82
2020/12/31 11:45:10;;;;;;;6.60;3.20;;;8.70;59.00;;;;;;6206108;28;20507;-81
2020/12/31 11:48:11;;;;;;;8.55;3.60;;;8.70;59.00;;;;;;6206632;28;20424;-81
2020/12/31 11:51:13;;;;;;;6.53;2.90;;;8.80;59.00;;;;;;6228272;28;20108;-80
2020/12/31 11:54:14;;;;;;;3.28;2.15;;;8.70;58.90;;;;;;6233240;28;20455;-81
2020/12/31 11:57:15;;;;;;;16.30;5.82;;;8.90;58.80;;;;;;6265536;28;20072;-80
2020/12/31 12:00:17;;;;;;;10.40;4.55;;;8.90;58.60;;;;;;6255975;28;20065;-81
2020/12/31 12:03:18;;;;;;;7.72;3.10;;;8.90;58.60;;;;;;6241803;28;20037;-80
2020/12/31 12:06:21;;;;;;;16.20;7.10;;;8.90;58.80;;;;;;6221590;28;20037;-81
2020/12/31 12:09:22;;;;;;;15.13;5.82;;;9.00;58.90;;;;;;6216262;28;20030;-80
2020/12/31 12:12:24;;;;;;;12.48;4.50;;;9.00;58.90;;;;;;6246833;28;20486;-79
2020/12/31 12:15:25;;;;;;;10.65;4.47;;;9.10;58.70;;;;;;6249296;28;20033;-81
2020/12/31 12:18:26;;;;;;;11.25;4.78;;;9.10;58.70;;;;;;6230871;28;20045;-80
2020/12/31 12:21:27;;;;;;;3.28;2.00;;;9.10;58.70;;;;;;6248919;28;20037;-81
2020/12/31 12:24:28;;;;;;;3.95;2.38;;;9.10;58.70;;;;;;6269454;28;20044;-82
2020/12/31 12:27:29;;;;;;;6.50;2.83;;;9.10;58.70;;;;;;6287289;28;20036;-82
2020/12/31 12:30:30;;;;;;;7.13;3.67;;;9.10;58.60;;;;;;6261703;28;20033;-81
2020/12/31 12:33:31;;;;;;;5.57;2.30;;;9.10;58.50;;;;;;6254532;28;20040;-81
2020/12/31 12:36:32;;;;;;;6.10;2.45;;;9.10;58.40;;;;;;6267761;28;20032;-81
2020/12/31 12:39:34;;;;;;;4.20;2.70;;;9.10;58.40;;;;;;6251283;28;20037;-81
2020/12/31 12:42:36;;;;;;;5.30;2.45;;;9.20;58.40;;;;;;6253807;28;20040;-81
2020/12/31 12:45:37;;;;;;;4.10;1.98;;;9.20;58.10;;;;;;6258384;28;20040;-81
2020/12/31 12:48:39;;;;;;;4.30;2.05;;;9.30;57.90;;;;;;6275734;28;20025;-81
2020/12/31 12:51:40;;;;;;;6.75;1.92;;;9.40;57.90;;;;;;6271939;28;20037;-83
2020/12/31 12:54:41;;;;;;;6.70;2.92;;;9.60;57.70;;;;;;6272652;28;20423;-82
2020/12/31 12:57:42;;;;;;;5.47;2.67;;;9.70;57.50;;;;;;6243275;28;20105;-80
2020/12/31 13:00:43;;;;;;;13.43;6.32;;;9.80;57.40;;;;;;6300586;28;20109;-80
2020/12/31 13:03:44;;;;;;;17.67;6.93;;;9.90;57.10;;;;;;6250972;28;20088;-80
2020/12/31 13:06:49;;;;;;;18.95;7.47;;;10.00;57.00;;;;;;6241246;28;20033;-81
2020/12/31 13:09:50;;;;;;;12.00;4.35;;;10.00;56.90;;;;;;6231285;28;20117;-81
2020/12/31 13:12:52;;;;;;;12.00;4.07;;;10.00;56.80;;;;;;6263616;28;20025;-81
2020/12/31 13:15:53;;;;;;;6.28;2.08;;;10.10;56.70;;;;;;6247118;28;20033;-80
2020/12/31 13:18:54;;;;;;;22.85;7.35;;;10.00;56.60;;;;;;6263917;28;20108;-81
2020/12/31 13:21:57;;;;;;;4.00;1.90;;;10.00;56.70;;;;;;6233360;28;20136;-82
2020/12/31 13:24:57;;;;;;;5.28;2.60;;;10.00;56.40;;;;;;6238829;28;20033;-81
2020/12/31 13:27:59;;;;;;;18.80;8.55;;;9.90;56.20;;;;;;6229785;28;20036;-81
2020/12/31 13:31:01;;;;;;;8.30;3.45;;;9.80;56.50;;;;;;6284784;28;20132;-81
2020/12/31 13:34:03;;;;;;;5.65;3.05;;;9.90;56.80;;;;;;6302671;28;20073;-82
2020/12/31 13:37:04;;;;;;;18.85;6.90;;;9.90;56.90;;;;;;6271546;28;20079;-82
2020/12/31 13:40:06;;;;;;;14.57;6.40;;;9.80;56.90;;;;;;6264260;28;20102;-82
2020/12/31 13:43:07;;;;;;;12.40;6.05;;;9.80;57.20;;;;;;6263352;28;20094;-81
2020/12/31 13:46:08;;;;;;;8.48;4.85;;;9.80;57.30;;;;;;6265865;28;20143;-82
2020/12/31 13:49:10;;;;;;;7.60;3.90;;;9.70;57.40;;;;;;6278132;28;20032;-81
2020/12/31 13:52:11;;;;;;;4.30;2.97;;;9.70;57.40;;;;;;6280734;28;20129;-81
2020/12/31 13:55:12;;;;;;;6.03;3.22;;;9.80;57.50;;;;;;6263953;28;20121;-81
2020/12/31 13:58:14;;;;;;;6.15;3.25;;;9.70;57.30;;;;;;6287839;28;20040;-82
2020/12/31 14:01:19;;;;;;;5.20;2.65;;;9.60;57.20;;;;;;6298180;28;20115;-81
2020/12/31 14:04:24;;;;;;;6.82;3.25;;;9.60;57.00;;;;;;6288117;28;20106;-82
2020/12/31 14:07:26;;;;;;;7.65;3.60;;;9.60;57.10;;;;;;6281828;28;20046;-81
2020/12/31 14:10:27;;;;;;;13.00;3.63;;;9.60;57.10;;;;;;6298060;28;20078;-80
2020/12/31 14:13:28;;;;;;;14.90;6.05;;;9.60;57.20;;;;;;6257085;28;20025;-80
2020/12/31 14:16:29;;;;;;;11.98;3.83;;;9.60;57.30;;;;;;6276725;28;20040;-80
2020/12/31 14:19:30;;;;;;;13.07;6.47;;;9.70;57.40;;;;;;6280853;28;20040;-80
2020/12/31 14:22:33;;;;;;;6.60;3.47;;;9.70;57.30;;;;;;6273538;28;20052;-81
2020/12/31 14:25:35;;;;;;;4.00;2.65;;;9.70;57.30;;;;;;6264049;28;20044;-81
2020/12/31 14:28:36;;;;;;;7.50;2.70;;;9.80;57.30;;;;;;6243229;28;20041;-83
2020/12/31 14:31:39;;;;;;;9.02;4.53;;;9.80;57.20;;;;;;6252985;28;20044;-81
2020/12/31 14:34:40;;;;;;;9.95;3.88;;;9.80;57.30;;;;;;6214603;28;20037;-81
2020/12/31 14:37:41;;;;;;;4.65;2.65;;;9.80;57.30;;;;;;6262157;28;20034;-81
2020/12/31 14:40:42;;;;;;;10.23;5.07;;;9.80;57.30;;;;;;6246270;28;20104;-82
2020/12/31 14:43:45;;;;;;;12.15;4.40;;;9.80;57.30;;;;;;6246835;28;20037;-81
2020/12/31 14:46:47;;;;;;;9.30;3.03;;;9.80;57.40;;;;;;6248951;28;20036;-82
2020/12/31 14:49:48;;;;;;;5.85;3.15;;;9.80;57.40;;;;;;6231196;28;20058;-80
2020/12/31 14:52:49;;;;;;;18.02;6.25;;;9.80;57.40;;;;;;6235850;28;20037;-81
2020/12/31 14:55:50;;;;;;;9.82;4.55;;;9.70;57.40;;;;;;6247580;28;20425;-80
2020/12/31 14:58:53;;;;;;;6.50;3.60;;;9.70;57.50;;;;;;6259175;28;20529;-81
2020/12/31 15:01:54;;;;;;;7.47;3.45;;;9.70;57.60;;;;;;6239294;28;20082;-81
2020/12/31 15:04:55;;;;;;;6.85;3.60;;;9.70;57.70;;;;;;6212149;28;20048;-81
2020/12/31 15:07:56;;;;;;;6.97;3.40;;;9.60;57.60;;;;;;6230229;28;20041;-80
2020/12/31 15:10:57;;;;;;;6.15;3.10;;;9.60;57.80;;;;;;6229606;28;20112;-81
2020/12/31 15:13:58;;;;;;;8.20;3.67;;;9.60;57.80;;;;;;6227329;28;20037;-81
2020/12/31 15:16:59;;;;;;;6.25;3.15;;;9.60;58.00;;;;;;6228930;28;20145;-81
2020/12/31 15:20:02;;;;;;;8.20;3.67;;;9.60;58.00;;;;;;6214287;28;20140;-81
2020/12/31 15:23:03;;;;;;;7.72;3.45;;;9.70;58.20;;;;;;6223943;28;20096;-82
2020/12/31 15:26:05;;;;;;;7.38;3.67;;;9.70;58.00;;;;;;6210028;28;20394;-82
2020/12/31 15:29:09;;;;;;;7.43;3.55;;;9.70;58.30;;;;;;6225813;28;20045;-82
2020/12/31 15:32:12;;;;;;;6.22;3.58;;;9.70;58.10;;;;;;6193844;28;20414;-80
2020/12/31 15:35:14;;;;;;;5.53;3.30;;;9.70;58.20;;;;;;6244581;28;20034;-80
2020/12/31 15:38:18;;;;;;;12.07;4.03;;;9.70;58.20;;;;;;6227734;28;20084;-82
2020/12/31 15:41:19;;;;;;;8.07;4.05;;;9.70;58.10;;;;;;6230494;28;20408;-81
2020/12/31 15:44:20;;;;;;;7.47;3.63;;;9.70;58.20;;;;;;6196830;28;20058;-80
2020/12/31 15:47:28;;;;;;;12.02;5.65;;;9.70;58.20;;;;;;6217755;28;20030;-81
2020/12/31 15:50:39;;;;;;;8.65;3.45;;;9.60;58.20;;;;;;6220860;28;20044;-82
2020/12/31 15:53:40;;;;;;;7.68;3.80;;;9.60;58.30;;;;;;6222943;28;20172;-81
2020/12/31 15:56:50;;;;;;;10.32;4.13;;;9.50;58.50;;;;;;6242837;28;20025;-81
2020/12/31 15:59:51;;;;;;;8.82;4.30;;;9.40;58.60;;;;;;6240668;28;20156;-81
2020/12/31 16:03:06;;;;;;;13.68;5.57;;;9.40;58.80;;;;;;6244818;28;20037;-81
2020/12/31 16:06:13;;;;;;;13.93;5.70;;;9.30;58.90;;;;;;6238647;28;20037;-80
2020/12/31 16:13:09;;;;;;;10.18;5.13;;;9.20;59.30;;;;;;6030113;29;20135;-80
2020/12/31 16:16:13;;;;;;;9.65;4.20;;;9.20;59.40;;;;;;6024383;29;20060;-80
2020/12/31 16:19:14;;;;;;;13.80;4.85;;;9.10;59.50;;;;;;6043850;29;20049;-81
2020/12/31 16:22:15;;;;;;;14.32;6.20;;;9.10;59.50;;;;;;6059555;29;20467;-81
2020/12/31 16:25:16;;;;;;;21.38;8.75;;;9.10;59.60;;;;;;6090870;29;20137;-81